sensor_id;sensor_type;location;lat;lon;timestamp;pressure;altitude;pressure_sealevel;temperature;humidity
2675;BME280;1347;42.122;24.746;2023-01-15T00:00:33;100153.81;;;6.15;100.00
2675;BME280;1347;42.122;24.746;2023-01-15T00:03:00;100151.75;;;6.12;100.00
2675;BME280;1347;42.122;24.746;2023-01-15T00:05:27;100160.88;;;6.16;100.00
2675;BME280;1347;42.122;24.746;2023-01-15T00:07:54;100165.53;;;6.16;100.00
2675;BME280;1347;42.122;24.746;2023-01-15T00:10:20;100166.47;;;6.20;100.00
2675;BME280;1347;42.122;24.746;2023-01-15T00:12:47;100160.88;;;6.16;100.00
2675;BME280;1347;42.122;24.746;2023-01-15T00:15:14;100167.44;;;6.15;100.00
2675;BME280;1347;42.122;24.746;2023-01-15T00:17:43;100171.59;;;6.13;100.00
2675;BME280;1347;42.122;24.746;2023-01-15T00:20:10;100167.47;;;6.07;100.00
2675;BME280;1347;42.122;24.746;2023-01-15T00:22:37;100159.28;;;6.07;100.00
2675;BME280;1347;42.122;24.746;2023-01-15T00:25:05;100171.94;;;6.03;100.00
2675;BME280;1347;42.122;24.746;2023-01-15T00:27:50;100168.59;;;6.06;100.00
2675;BME280;1347;42.122;24.746;2023-01-15T00:30:17;100161.69;;;6.08;100.00
2675;BME280;1347;42.122;24.746;2023-01-15T00:32:45;100159.44;;;6.02;100.00
2675;BME280;1347;42.122;24.746;2023-01-15T00:35:13;100163.78;;;6.03;100.00
2675;BME280;1347;42.122;24.746;2023-01-15T00:37:40;100162.34;;;5.97;100.00
2675;BME280;1347;42.122;24.746;2023-01-15T00:40:08;100157.84;;;6.01;100.00
2675;BME280;1347;42.122;24.746;2023-01-15T00:42:36;100161.38;;;6.01;100.00
2675;BME280;1347;42.122;24.746;2023-01-15T00:45:03;100160.56;;;6.01;100.00
2675;BME280;1347;42.122;24.746;2023-01-15T00:47:34;100159.13;;;6.03;100.00
2675;BME280;1347;42.122;24.746;2023-01-15T00:50:04;100166.81;;;6.10;100.00
2675;BME280;1347;42.122;24.746;2023-01-15T00:52:31;100162.94;;;6.11;100.00
2675;BME280;1347;42.122;24.746;2023-01-15T00:54:58;100156.06;;;6.13;100.00
2675;BME280;1347;42.122;24.746;2023-01-15T00:57:25;100157.50;;;6.11;100.00
2675;BME280;1347;42.122;24.746;2023-01-15T00:59:52;100158.66;;;6.10;100.00
2675;BME280;1347;42.122;24.746;2023-01-15T01:02:19;100155.13;;;6.09;100.00
2675;BME280;1347;42.122;24.746;2023-01-15T01:04:46;100149.34;;;6.11;100.00
2675;BME280;1347;42.122;24.746;2023-01-15T01:07:14;100158.31;;;6.11;100.00
2675;BME280;1347;42.122;24.746;2023-01-15T01:09:42;100156.09;;;6.05;100.00
2675;BME280;1347;42.122;24.746;2023-01-15T01:12:10;100152.88;;;6.03;100.00
2675;BME280;1347;42.122;24.746;2023-01-15T01:14:37;100154.34;;;6.00;100.00
2675;BME280;1347;42.122;24.746;2023-01-15T01:17:04;100156.91;;;5.97;100.00
2675;BME280;1347;42.122;24.746;2023-01-15T01:19:31;100155.31;;;5.96;100.00
2675;BME280;1347;42.122;24.746;2023-01-15T01:21:58;100153.72;;;5.95;100.00
2675;BME280;1347;42.122;24.746;2023-01-15T01:24:26;100153.72;;;5.95;100.00
2675;BME280;1347;42.122;24.746;2023-01-15T01:26:53;100158.66;;;6.01;100.00
2675;BME280;1347;42.122;24.746;2023-01-15T01:29:21;100153.41;;;5.96;100.00
2675;BME280;1347;42.122;24.746;2023-01-15T01:31:49;100153.41;;;5.96;100.00
2675;BME280;1347;42.122;24.746;2023-01-15T01:34:16;100158.03;;;5.96;100.00
2675;BME280;1347;42.122;24.746;2023-01-15T01:36:43;100147.47;;;5.94;100.00
2675;BME280;1347;42.122;24.746;2023-01-15T01:39:13;100146.03;;;5.97;100.00
2675;BME280;1347;42.122;24.746;2023-01-15T01:41:42;100149.88;;;5.96;100.00
2675;BME280;1347;42.122;24.746;2023-01-15T01:47:11;100149.06;;;5.95;100.00
2675;BME280;1347;42.122;24.746;2023-01-15T01:49:41;100147.94;;;5.96;100.00
2675;BME280;1347;42.122;24.746;2023-01-15T01:52:12;100150.34;;;5.98;100.00
2675;BME280;1347;42.122;24.746;2023-01-15T01:54:43;100142.31;;;6.01;100.00
2675;BME280;1347;42.122;24.746;2023-01-15T01:57:14;100143.47;;;6.00;100.00
2675;BME280;1347;42.122;24.746;2023-01-15T01:59:42;100140.75;;;6.00;100.00
2675;BME280;1347;42.122;24.746;2023-01-15T02:02:09;100137.56;;;5.98;100.00
2675;BME280;1347;42.122;24.746;2023-01-15T02:04:36;100146.34;;;5.95;100.00
2675;BME280;1347;42.122;24.746;2023-01-15T02:07:05;100136.59;;;5.94;100.00
2675;BME280;1347;42.122;24.746;2023-01-15T02:09:32;100143.47;;;5.91;100.00
2675;BME280;1347;42.122;24.746;2023-01-15T02:12:04;100147.78;;;5.93;100.00
2675;BME280;1347;42.122;24.746;2023-01-15T02:14:38;100138.03;;;5.91;100.00
2675;BME280;1347;42.122;24.746;2023-01-15T02:17:14;100142.00;;;5.85;100.00
2675;BME280;1347;42.122;24.746;2023-01-15T02:19:49;100141.22;;;5.85;100.00
2675;BME280;1347;42.122;24.746;2023-01-15T02:22:28;100135.16;;;5.79;100.00
2675;BME280;1347;42.122;24.746;2023-01-15T02:25:04;100131.47;;;5.75;100.00
2675;BME280;1347;42.122;24.746;2023-01-15T02:27:42;100134.50;;;5.82;100.00
2675;BME280;1347;42.122;24.746;2023-01-15T02:30:15;100139.44;;;5.80;100.00
2675;BME280;1347;42.122;24.746;2023-01-15T02:32:50;100136.59;;;5.77;100.00
2675;BME280;1347;42.122;24.746;2023-01-15T02:35:24;100138.34;;;5.73;100.00
2675;BME280;1347;42.122;24.746;2023-01-15T02:37:56;100135.31;;;5.74;100.00
2675;BME280;1347;42.122;24.746;2023-01-15T02:40:25;100129.41;;;5.64;100.00
2675;BME280;1347;42.122;24.746;2023-01-15T02:42:56;100131.31;;;5.63;100.00
2675;BME280;1347;42.122;24.746;2023-01-15T02:45:27;100127.31;;;5.61;100.00
2675;BME280;1347;42.122;24.746;2023-01-15T02:47:59;100135.63;;;5.73;100.00
2675;BME280;1347;42.122;24.746;2023-01-15T02:50:30;100127.44;;;5.81;100.00
2675;BME280;1347;42.122;24.746;2023-01-15T02:53:03;100130.50;;;5.80;100.00
2675;BME280;1347;42.122;24.746;2023-01-15T02:55:37;100127.00;;;5.79;100.00
2675;BME280;1347;42.122;24.746;2023-01-15T02:58:10;100129.72;;;5.79;100.00
2675;BME280;1347;42.122;24.746;2023-01-15T03:00:41;100135.16;;;5.79;100.00
2675;BME280;1347;42.122;24.746;2023-01-15T03:03:13;100130.34;;;5.76;100.00
2675;BME280;1347;42.122;24.746;2023-01-15T03:05:49;100138.84;;;5.66;100.00
2675;BME280;1347;42.122;24.746;2023-01-15T03:08:17;100131.47;;;5.75;100.00
2675;BME280;1347;42.122;24.746;2023-01-15T03:10:47;100140.59;;;5.79;100.00
2675;BME280;1347;42.122;24.746;2023-01-15T03:13:21;100134.34;;;5.79;100.00
2675;BME280;1347;42.122;24.746;2023-01-15T03:15:56;100137.41;;;5.77;100.00
2675;BME280;1347;42.122;24.746;2023-01-15T03:18:46;100128.44;;;5.68;100.00
2675;BME280;1347;42.122;24.746;2023-01-15T03:21:20;100134.53;;;5.65;100.00
2675;BME280;1347;42.122;24.746;2023-01-15T03:23:50;100137.88;;;5.62;100.00
2675;BME280;1347;42.122;24.746;2023-01-15T03:26:18;100133.56;;;5.61;100.00
2675;BME280;1347;42.122;24.746;2023-01-15T03:28:47;100133.41;;;5.58;100.00
2675;BME280;1347;42.122;24.746;2023-01-15T03:31:15;100126.19;;;5.62;100.00
2675;BME280;1347;42.122;24.746;2023-01-15T03:33:42;100126.69;;;5.64;100.00
2675;BME280;1347;42.122;24.746;2023-01-15T03:36:10;100127.78;;;5.63;100.00
2675;BME280;1347;42.122;24.746;2023-01-15T03:38:38;100119.00;;;5.57;100.00
2675;BME280;1347;42.122;24.746;2023-01-15T03:41:13;100122.84;;;5.56;100.00
2675;BME280;1347;42.122;24.746;2023-01-15T03:43:51;100126.53;;;5.51;100.00
2675;BME280;1347;42.122;24.746;2023-01-15T03:46:30;100120.28;;;5.51;100.00
2675;BME280;1347;42.122;24.746;2023-01-15T03:49:05;100125.09;;;5.54;100.00
2675;BME280;1347;42.122;24.746;2023-01-15T03:51:39;100125.56;;;5.56;100.00
2675;BME280;1347;42.122;24.746;2023-01-15T03:54:10;100124.78;;;5.55;100.00
2675;BME280;1347;42.122;24.746;2023-01-15T03:56:44;100126.84;;;5.59;100.00
2675;BME280;1347;42.122;24.746;2023-01-15T03:59:22;100127.00;;;5.62;100.00
2675;BME280;1347;42.122;24.746;2023-01-15T04:01:53;100129.56;;;5.59;100.00
2675;BME280;1347;42.122;24.746;2023-01-15T04:04:20;100128.28;;;5.56;100.00
2675;BME280;1347;42.122;24.746;2023-01-15T04:06:48;100133.72;;;5.56;100.00
2675;BME280;1347;42.122;24.746;2023-01-15T04:09:15;100138.38;;;5.55;100.00
2675;BME280;1347;42.122;24.746;2023-01-15T04:11:43;100127.97;;;5.58;100.00
2675;BME280;1347;42.122;24.746;2023-01-15T04:14:12;100137.75;;;5.59;100.00
2675;BME280;1347;42.122;24.746;2023-01-15T04:16:41;100129.09;;;5.65;100.00
2675;BME280;1347;42.122;24.746;2023-01-15T04:19:08;100131.81;;;5.65;100.00
2675;BME280;1347;42.122;24.746;2023-01-15T04:21:35;100139.66;;;5.67;100.00
2675;BME280;1347;42.122;24.746;2023-01-15T04:24:02;100141.06;;;5.64;100.00
2675;BME280;1347;42.122;24.746;2023-01-15T04:26:29;100142.06;;;5.60;100.00
2675;BME280;1347;42.122;24.746;2023-01-15T04:28:55;100141.88;;;5.56;100.00
2675;BME280;1347;42.122;24.746;2023-01-15T04:31:22;100139.47;;;5.54;100.00
2675;BME280;1347;42.122;24.746;2023-01-15T04:33:51;100140.59;;;5.53;100.00
2675;BME280;1347;42.122;24.746;2023-01-15T04:36:18;100147.66;;;5.54;100.00
2675;BME280;1347;42.122;24.746;2023-01-15T04:38:44;100148.13;;;5.65;100.00
2675;BME280;1347;42.122;24.746;2023-01-15T04:41:11;100158.19;;;5.73;100.00
2675;BME280;1347;42.122;24.746;2023-01-15T04:43:56;100159.00;;;5.65;100.00
2675;BME280;1347;42.122;24.746;2023-01-15T04:46:33;100158.81;;;5.62;100.00
2675;BME280;1347;42.122;24.746;2023-01-15T04:49:01;100160.59;;;5.66;100.00
2675;BME280;1347;42.122;24.746;2023-01-15T04:51:28;100156.91;;;5.62;100.00
2675;BME280;1347;42.122;24.746;2023-01-15T04:53:55;100159.50;;;5.59;100.00
2675;BME280;1347;42.122;24.746;2023-01-15T04:56:22;100158.69;;;5.58;100.00
2675;BME280;1347;42.122;24.746;2023-01-15T04:58:49;100165.72;;;5.59;100.00
2675;BME280;1347;42.122;24.746;2023-01-15T05:01:16;100169.09;;;5.56;100.00
2675;BME280;1347;42.122;24.746;2023-01-15T05:03:44;100166.69;;;5.54;100.00
2675;BME280;1347;42.122;24.746;2023-01-15T05:06:12;100172.13;;;5.54;100.00
2675;BME280;1347;42.122;24.746;2023-01-15T05:08:39;100165.69;;;5.42;100.00
2675;BME280;1347;42.122;24.746;2023-01-15T05:11:07;100171.00;;;5.47;100.00
2675;BME280;1347;42.122;24.746;2023-01-15T05:13:34;100164.75;;;5.46;100.00
2675;BME280;1347;42.122;24.746;2023-01-15T05:16:09;100160.75;;;5.44;100.00
2675;BME280;1347;42.122;24.746;2023-01-15T05:18:36;100166.38;;;5.47;100.00
2675;BME280;1347;42.122;24.746;2023-01-15T05:21:04;100165.38;;;5.43;100.00
2675;BME280;1347;42.122;24.746;2023-01-15T05:23:32;100167.97;;;5.48;100.00
2675;BME280;1347;42.122;24.746;2023-01-15T05:26:02;100167.31;;;5.51;100.00
2675;BME280;1347;42.122;24.746;2023-01-15T05:28:29;100169.41;;;5.54;100.00
2675;BME280;1347;42.122;24.746;2023-01-15T05:30:56;100169.88;;;5.57;100.00
2675;BME280;1347;42.122;24.746;2023-01-15T05:33:23;100163.16;;;5.63;100.00
2675;BME280;1347;42.122;24.746;2023-01-15T05:35:50;100177.88;;;5.62;100.00
2675;BME280;1347;42.122;24.746;2023-01-15T05:38:17;100180.13;;;5.60;100.00
2675;BME280;1347;42.122;24.746;2023-01-15T05:40:45;100183.78;;;5.64;100.00
2675;BME280;1347;42.122;24.746;2023-01-15T05:43:12;100180.44;;;5.58;100.00
2675;BME280;1347;42.122;24.746;2023-01-15T05:45:39;100180.28;;;5.54;100.00
2675;BME280;1347;42.122;24.746;2023-01-15T05:48:06;100182.50;;;5.52;100.00
2675;BME280;1347;42.122;24.746;2023-01-15T05:50:33;100173.72;;;5.55;100.00
2675;BME280;1347;42.122;24.746;2023-01-15T05:53:00;100179.97;;;5.56;100.00
2675;BME280;1347;42.122;24.746;2023-01-15T05:55:27;100189.53;;;5.53;100.00
2675;BME280;1347;42.122;24.746;2023-01-15T05:57:55;100187.00;;;5.57;100.00
2675;BME280;1347;42.122;24.746;2023-01-15T06:00:23;100190.34;;;5.63;100.00
2675;BME280;1347;42.122;24.746;2023-01-15T06:02:50;100187.81;;;5.58;100.00
2675;BME280;1347;42.122;24.746;2023-01-15T06:05:17;100183.16;;;5.58;100.00
2675;BME280;1347;42.122;24.746;2023-01-15T06:07:47;100184.09;;;5.53;100.00
2675;BME280;1347;42.122;24.746;2023-01-15T06:10:15;100187.00;;;5.57;100.00
2675;BME280;1347;42.122;24.746;2023-01-15T06:12:42;100186.81;;;5.62;100.00
2675;BME280;1347;42.122;24.746;2023-01-15T06:15:11;100180.44;;;5.75;100.00
2675;BME280;1347;42.122;24.746;2023-01-15T06:17:38;100179.31;;;5.76;100.00
2675;BME280;1347;42.122;24.746;2023-01-15T06:20:06;100182.53;;;5.78;100.00
2675;BME280;1347;42.122;24.746;2023-01-15T06:22:33;100181.22;;;5.84;100.00
2675;BME280;1347;42.122;24.746;2023-01-15T06:25:00;100181.56;;;5.91;100.00
2675;BME280;1347;42.122;24.746;2023-01-15T06:27:27;100182.22;;;5.88;100.00
2675;BME280;1347;42.122;24.746;2023-01-15T06:29:54;100186.03;;;5.79;100.00
2675;BME280;1347;42.122;24.746;2023-01-15T06:32:25;100177.22;;;5.73;100.00
2675;BME280;1347;42.122;24.746;2023-01-15T06:34:52;100180.59;;;5.62;100.00
2675;BME280;1347;42.122;24.746;2023-01-15T06:37:18;100189.72;;;5.66;100.00
2675;BME280;1347;42.122;24.746;2023-01-15T06:39:46;100192.91;;;5.68;100.00
2675;BME280;1347;42.122;24.746;2023-01-15T06:42:12;100199.63;;;5.70;100.00
2675;BME280;1347;42.122;24.746;2023-01-15T06:44:57;100191.31;;;5.67;100.00
2675;BME280;1347;42.122;24.746;2023-01-15T06:47:42;100201.41;;;5.66;100.00
2675;BME280;1347;42.122;24.746;2023-01-15T06:50:10;100193.72;;;5.77;100.00
2675;BME280;1347;42.122;24.746;2023-01-15T06:52:37;100194.19;;;5.79;100.00
2675;BME280;1347;42.122;24.746;2023-01-15T06:55:04;100194.03;;;5.84;100.00
2675;BME280;1347;42.122;24.746;2023-01-15T06:57:32;100188.75;;;5.87;100.00
2675;BME280;1347;42.122;24.746;2023-01-15T06:59:58;100198.22;;;5.90;100.00
2675;BME280;1347;42.122;24.746;2023-01-15T07:02:25;100196.28;;;5.90;100.00
2675;BME280;1347;42.122;24.746;2023-01-15T07:04:54;100198.53;;;5.97;100.00
2675;BME280;1347;42.122;24.746;2023-01-15T07:07:21;100192.91;;;6.02;100.00
2675;BME280;1347;42.122;24.746;2023-01-15T07:09:48;100199.00;;;6.08;100.00
2675;BME280;1347;42.122;24.746;2023-01-15T07:12:16;100194.97;;;6.14;100.00
2675;BME280;1347;42.122;24.746;2023-01-15T07:14:43;100197.38;;;6.15;100.00
2675;BME280;1347;42.122;24.746;2023-01-15T07:17:10;100202.47;;;6.25;100.00
2675;BME280;1347;42.122;24.746;2023-01-15T07:19:37;100200.72;;;6.30;100.00
2675;BME280;1347;42.122;24.746;2023-01-15T07:22:06;100200.84;;;6.33;100.00
2675;BME280;1347;42.122;24.746;2023-01-15T07:24:33;100204.22;;;6.39;100.00
2675;BME280;1347;42.122;24.746;2023-01-15T07:27:00;100211.28;;;6.40;100.00
2675;BME280;1347;42.122;24.746;2023-01-15T07:29:27;100208.09;;;6.29;100.00
2675;BME280;1347;42.122;24.746;2023-01-15T07:31:55;100208.84;;;6.47;100.00
2675;BME280;1347;42.122;24.746;2023-01-15T07:34:22;100212.16;;;6.52;100.00
2675;BME280;1347;42.122;24.746;2023-01-15T07:36:49;100210.41;;;6.56;100.00
2675;BME280;1347;42.122;24.746;2023-01-15T07:39:17;100219.75;;;6.38;100.00
2675;BME280;1347;42.122;24.746;2023-01-15T07:41:44;100216.25;;;6.29;100.00
2675;BME280;1347;42.122;24.746;2023-01-15T07:44:29;100217.06;;;6.30;100.00
2675;BME280;1347;42.122;24.746;2023-01-15T07:47:17;100214.47;;;6.33;100.00
2675;BME280;1347;42.122;24.746;2023-01-15T07:50:03;100211.41;;;6.43;100.00
2675;BME280;1347;42.122;24.746;2023-01-15T07:52:30;100218.00;;;6.34;100.00
2675;BME280;1347;42.122;24.746;2023-01-15T07:54:59;100215.47;;;6.20;100.00
2675;BME280;1347;42.122;24.746;2023-01-15T07:57:26;100213.38;;;6.25;100.00
2675;BME280;1347;42.122;24.746;2023-01-15T07:59:53;100219.59;;;6.35;100.00
2675;BME280;1347;42.122;24.746;2023-01-15T08:02:20;100217.19;;;6.33;100.00
2675;BME280;1347;42.122;24.746;2023-01-15T08:04:47;100229.34;;;6.44;100.00
2675;BME280;1347;42.122;24.746;2023-01-15T08:07:14;100231.09;;;6.49;100.00
2675;BME280;1347;42.122;24.746;2023-01-15T08:09:41;100237.84;;;6.51;100.00
2675;BME280;1347;42.122;24.746;2023-01-15T08:12:10;100232.69;;;6.58;100.00
2675;BME280;1347;42.122;24.746;2023-01-15T08:14:54;100238.69;;;6.73;100.00
2675;BME280;1347;42.122;24.746;2023-01-15T08:17:36;100231.00;;;6.75;100.00
2675;BME280;1347;42.122;24.746;2023-01-15T08:20:08;100237.69;;;6.86;100.00
2675;BME280;1347;42.122;24.746;2023-01-15T08:22:36;100228.56;;;6.90;100.00
2675;BME280;1347;42.122;24.746;2023-01-15T08:25:06;100220.94;;;7.05;100.00
2675;BME280;1347;42.122;24.746;2023-01-15T08:27:35;100231.38;;;7.02;100.00
2675;BME280;1347;42.122;24.746;2023-01-15T08:30:03;100231.44;;;6.85;100.00
2675;BME280;1347;42.122;24.746;2023-01-15T08:32:30;100234.34;;;6.89;100.00
2675;BME280;1347;42.122;24.746;2023-01-15T08:34:57;100232.84;;;7.00;100.00
2675;BME280;1347;42.122;24.746;2023-01-15T08:37:24;100223.50;;;7.10;100.00
2675;BME280;1347;42.122;24.746;2023-01-15T08:39:51;100227.97;;;7.35;100.00
2675;BME280;1347;42.122;24.746;2023-01-15T08:42:18;100230.34;;;7.16;100.00
2675;BME280;1347;42.122;24.746;2023-01-15T08:44:47;100225.00;;;6.98;100.00
2675;BME280;1347;42.122;24.746;2023-01-15T08:47:15;100218.31;;;6.87;100.00
2675;BME280;1347;42.122;24.746;2023-01-15T08:49:42;100223.88;;;6.99;100.00
2675;BME280;1347;42.122;24.746;2023-01-15T08:52:09;100215.63;;;6.79;100.00
2675;BME280;1347;42.122;24.746;2023-01-15T08:54:36;100218.22;;;6.67;100.00
2675;BME280;1347;42.122;24.746;2023-01-15T08:57:03;100217.25;;;6.62;100.00
2675;BME280;1347;42.122;24.746;2023-01-15T08:59:29;100220.94;;;6.67;100.00
2675;BME280;1347;42.122;24.746;2023-01-15T09:01:58;100216.47;;;6.71;100.00
2675;BME280;1347;42.122;24.746;2023-01-15T09:04:26;100212.78;;;6.67;100.00
2675;BME280;1347;42.122;24.746;2023-01-15T09:06:53;100218.38;;;6.70;100.00
2675;BME280;1347;42.122;24.746;2023-01-15T09:09:20;100210.97;;;6.79;100.00
2675;BME280;1347;42.122;24.746;2023-01-15T09:11:47;100207.56;;;6.91;100.00
2675;BME280;1347;42.122;24.746;2023-01-15T09:14:14;100211.69;;;6.97;100.00
2675;BME280;1347;42.122;24.746;2023-01-15T09:16:41;100208.34;;;6.91;100.00
2675;BME280;1347;42.122;24.746;2023-01-15T09:19:10;100203.34;;;6.93;100.00
2675;BME280;1347;42.122;24.746;2023-01-15T09:21:37;100202.28;;;6.86;100.00
2675;BME280;1347;42.122;24.746;2023-01-15T09:24:04;100202.56;;;6.93;100.00
2675;BME280;1347;42.122;24.746;2023-01-15T09:26:33;100197.34;;;7.09;100.00
2675;BME280;1347;42.122;24.746;2023-01-15T09:29:01;100195.00;;;7.28;100.00
2675;BME280;1347;42.122;24.746;2023-01-15T09:31:28;100191.47;;;7.48;100.00
2675;BME280;1347;42.122;24.746;2023-01-15T09:33:56;100189.97;;;7.59;100.00
2675;BME280;1347;42.122;24.746;2023-01-15T09:36:26;100184.75;;;7.66;100.00
2675;BME280;1347;42.122;24.746;2023-01-15T09:38:54;100191.63;;;7.72;100.00
2675;BME280;1347;42.122;24.746;2023-01-15T09:41:22;100192.03;;;7.83;100.00
2675;BME280;1347;42.122;24.746;2023-01-15T09:44:25;100186.16;;;7.93;100.00
2675;BME280;1347;42.122;24.746;2023-01-15T09:47:02;100190.84;;;7.84;100.00
2675;BME280;1347;42.122;24.746;2023-01-15T09:49:49;100184.03;;;7.78;100.00
2675;BME280;1347;42.122;24.746;2023-01-15T09:52:24;100187.28;;;7.92;100.00
2675;BME280;1347;42.122;24.746;2023-01-15T09:55:02;100192.47;;;8.18;100.00
2675;BME280;1347;42.122;24.746;2023-01-15T09:57:31;100185.38;;;8.05;100.00
2675;BME280;1347;42.122;24.746;2023-01-15T09:59:59;100185.94;;;7.98;100.00
2675;BME280;1347;42.122;24.746;2023-01-15T10:02:32;100173.97;;;7.70;100.00
2675;BME280;1347;42.122;24.746;2023-01-15T10:05:06;100165.81;;;7.49;100.00
2675;BME280;1347;42.122;24.746;2023-01-15T10:07:41;100161.66;;;7.43;100.00
2675;BME280;1347;42.122;24.746;2023-01-15T10:10:13;100162.59;;;7.47;100.00
2675;BME280;1347;42.122;24.746;2023-01-15T10:12:43;100158.03;;;7.60;100.00
2675;BME280;1347;42.122;24.746;2023-01-15T10:15:23;100153.88;;;7.74;100.00
2675;BME280;1347;42.122;24.746;2023-01-15T10:17:52;100148.25;;;7.92;100.00
2675;BME280;1347;42.122;24.746;2023-01-15T10:20:39;100142.47;;;7.93;100.00
2675;BME280;1347;42.122;24.746;2023-01-15T10:23:19;100141.31;;;7.94;100.00
2675;BME280;1347;42.122;24.746;2023-01-15T10:25:56;100128.72;;;8.02;100.00
2675;BME280;1347;42.122;24.746;2023-01-15T10:28:26;100125.56;;;8.12;100.00
2675;BME280;1347;42.122;24.746;2023-01-15T10:31:01;100121.25;;;8.11;100.00
2675;BME280;1347;42.122;24.746;2023-01-15T10:33:42;100122.16;;;8.27;100.00
2675;BME280;1347;42.122;24.746;2023-01-15T10:36:16;100116.88;;;8.43;100.00
2675;BME280;1347;42.122;24.746;2023-01-15T10:38:55;100120.34;;;8.19;100.00
2675;BME280;1347;42.122;24.746;2023-01-15T10:41:37;100112.03;;;8.16;100.00
2675;BME280;1347;42.122;24.746;2023-01-15T10:44:12;100106.06;;;8.34;100.00
2675;BME280;1347;42.122;24.746;2023-01-15T10:46:48;100107.31;;;8.37;100.00
2675;BME280;1347;42.122;24.746;2023-01-15T10:49:17;100102.19;;;8.47;100.00
2675;BME280;1347;42.122;24.746;2023-01-15T10:51:45;100097.75;;;8.55;100.00
2675;BME280;1347;42.122;24.746;2023-01-15T10:54:22;100099.59;;;8.63;100.00
2675;BME280;1347;42.122;24.746;2023-01-15T10:56:54;100095.00;;;8.31;100.00
2675;BME280;1347;42.122;24.746;2023-01-15T10:59:35;100083.59;;;8.29;100.00
2675;BME280;1347;42.122;24.746;2023-01-15T11:02:18;100084.56;;;8.33;100.00
2675;BME280;1347;42.122;24.746;2023-01-15T11:04:47;100086.78;;;8.19;100.00
2675;BME280;1347;42.122;24.746;2023-01-15T11:07:15;100078.44;;;8.15;100.00
2675;BME280;1347;42.122;24.746;2023-01-15T11:09:44;100074.56;;;7.92;100.00
2675;BME280;1347;42.122;24.746;2023-01-15T11:12:19;100064.97;;;7.86;100.00
2675;BME280;1347;42.122;24.746;2023-01-15T11:15:14;100065.25;;;8.05;100.00
2675;BME280;1347;42.122;24.746;2023-01-15T11:57:43;100022.59;;;8.12;100.00
2675;BME280;1347;42.122;24.746;2023-01-15T12:00:21;100016.91;;;8.30;100.00
2675;BME280;1347;42.122;24.746;2023-01-15T12:02:49;100020.34;;;8.51;100.00
2675;BME280;1347;42.122;24.746;2023-01-15T12:05:19;100016.09;;;8.66;100.00
2675;BME280;1347;42.122;24.746;2023-01-15T12:07:47;100008.22;;;8.76;100.00
2675;BME280;1347;42.122;24.746;2023-01-15T12:10:19;100002.34;;;8.62;100.00
2675;BME280;1347;42.122;24.746;2023-01-15T12:13:18;100010.09;;;8.60;100.00
2675;BME280;1347;42.122;24.746;2023-01-15T12:15:56;100004.63;;;8.48;100.00
2675;BME280;1347;42.122;24.746;2023-01-15T12:18:54;99997.44;;;8.56;100.00
2675;BME280;1347;42.122;24.746;2023-01-15T12:21:51;99997.81;;;8.54;100.00
2675;BME280;1347;42.122;24.746;2023-01-15T12:24:38;99992.91;;;8.60;100.00
2675;BME280;1347;42.122;24.746;2023-01-15T12:27:22;99988.78;;;8.66;100.00
2675;BME280;1347;42.122;24.746;2023-01-15T12:29:59;99982.97;;;8.55;100.00
2675;BME280;1347;42.122;24.746;2023-01-15T12:32:32;99983.53;;;8.73;100.00
2675;BME280;1347;42.122;24.746;2023-01-15T12:35:04;99980.38;;;8.99;100.00
2675;BME280;1347;42.122;24.746;2023-01-15T12:37:36;99984.09;;;9.06;100.00
2675;BME280;1347;42.122;24.746;2023-01-15T12:40:16;99973.31;;;8.98;100.00
2675;BME280;1347;42.122;24.746;2023-01-15T12:42:47;99972.72;;;9.04;100.00
2675;BME280;1347;42.122;24.746;2023-01-15T12:45:33;99971.81;;;9.28;100.00
2675;BME280;1347;42.122;24.746;2023-01-15T12:48:11;99980.22;;;9.35;99.84
2675;BME280;1347;42.122;24.746;2023-01-15T12:50:41;99970.78;;;9.33;100.00
2675;BME280;1347;42.122;24.746;2023-01-15T12:53:13;99979.59;;;9.26;99.91
2675;BME280;1347;42.122;24.746;2023-01-15T12:55:45;99978.81;;;9.26;98.26
2675;BME280;1347;42.122;24.746;2023-01-15T12:58:36;99976.69;;;9.07;98.51
2675;BME280;1347;42.122;24.746;2023-01-15T13:01:12;99975.81;;;9.03;98.79
2675;BME280;1347;42.122;24.746;2023-01-15T13:03:50;99971.72;;;8.97;100.00
2675;BME280;1347;42.122;24.746;2023-01-15T13:06:20;99965.41;;;8.80;100.00
2675;BME280;1347;42.122;24.746;2023-01-15T13:08:57;99959.03;;;8.76;100.00
2675;BME280;1347;42.122;24.746;2023-01-15T13:11:27;99961.34;;;8.62;100.00
2675;BME280;1347;42.122;24.746;2023-01-15T13:13:54;99959.31;;;8.47;100.00
2675;BME280;1347;42.122;24.746;2023-01-15T13:16:32;99958.19;;;8.48;100.00
2675;BME280;1347;42.122;24.746;2023-01-15T13:19:14;99965.81;;;8.55;100.00
2675;BME280;1347;42.122;24.746;2023-01-15T13:21:44;99961.59;;;8.57;100.00
2675;BME280;1347;42.122;24.746;2023-01-15T13:24:32;99961.25;;;8.59;100.00
2675;BME280;1347;42.122;24.746;2023-01-15T13:27:10;99961.13;;;8.55;100.00
2675;BME280;1347;42.122;24.746;2023-01-15T13:29:55;99953.81;;;8.71;100.00
2675;BME280;1347;42.122;24.746;2023-01-15T13:32:28;99956.06;;;8.81;100.00
2675;BME280;1347;42.122;24.746;2023-01-15T13:35:03;99958.44;;;8.83;100.00
2675;BME280;1347;42.122;24.746;2023-01-15T13:37:33;99962.22;;;8.78;100.00
2675;BME280;1347;42.122;24.746;2023-01-15T13:40:06;99952.88;;;8.79;100.00
2675;BME280;1347;42.122;24.746;2023-01-15T13:42:36;99956.56;;;8.71;100.00
2675;BME280;1347;42.122;24.746;2023-01-15T13:45:22;99954.31;;;8.61;100.00
2675;BME280;1347;42.122;24.746;2023-01-15T13:47:55;99953.38;;;8.57;100.00
2675;BME280;1347;42.122;24.746;2023-01-15T13:50:27;99955.78;;;8.59;100.00
2675;BME280;1347;42.122;24.746;2023-01-15T13:53:01;99958.06;;;8.57;100.00
2675;BME280;1347;42.122;24.746;2023-01-15T13:55:31;99955.91;;;8.50;100.00
2675;BME280;1347;42.122;24.746;2023-01-15T13:57:58;99944.19;;;8.25;100.00
2675;BME280;1347;42.122;24.746;2023-01-15T14:00:29;99946.28;;;8.04;100.00
2675;BME280;1347;42.122;24.746;2023-01-15T14:02:58;99940.78;;;8.16;100.00
2675;BME280;1347;42.122;24.746;2023-01-15T14:05:29;99935.31;;;8.28;100.00